sensor_id;sensor_type;location;lat;lon;timestamp;P1;durP1;ratioP1;P2;durP2;ratioP2
37451;SDS011;23314;51.114;6.900;2023-05-07T07:02:33;4.57;;;2.33;;
37451;SDS011;23314;51.114;6.900;2023-05-07T07:04:58;2.00;;;1.90;;
37451;SDS011;23314;51.114;6.900;2023-05-07T07:07:23;2.30;;;2.10;;
37451;SDS011;23314;51.114;6.900;2023-05-07T07:09:49;3.90;;;2.13;;
37451;SDS011;23314;51.114;6.900;2023-05-07T07:12:14;1.95;;;1.70;;
37451;SDS011;23314;51.114;6.900;2023-05-07T07:14:39;4.10;;;2.10;;
37451;SDS011;23314;51.114;6.900;2023-05-07T07:17:05;2.05;;;1.77;;
37451;SDS011;23314;51.114;6.900;2023-05-07T07:19:30;5.13;;;1.90;;
37451;SDS011;23314;51.114;6.900;2023-05-07T07:21:55;2.72;;;1.92;;
37451;SDS011;23314;51.114;6.900;2023-05-07T07:24:21;2.00;;;1.90;;
37451;SDS011;23314;51.114;6.900;2023-05-07T07:26:46;2.20;;;2.10;;
37451;SDS011;23314;51.114;6.900;2023-05-07T07:29:12;2.72;;;1.90;;
37451;SDS011;23314;51.114;6.900;2023-05-07T07:31:37;2.80;;;1.88;;
37451;SDS011;23314;51.114;6.900;2023-05-07T07:34:02;2.03;;;1.80;;
37451;SDS011;23314;51.114;6.900;2023-05-07T07:36:27;2.63;;;1.95;;
37451;SDS011;23314;51.114;6.900;2023-05-07T07:38:53;2.28;;;2.10;;
37451;SDS011;23314;51.114;6.900;2023-05-07T07:41:19;2.30;;;2.10;;
37451;SDS011;23314;51.114;6.900;2023-05-07T07:43:44;2.60;;;1.92;;
37451;SDS011;23314;51.114;6.900;2023-05-07T07:46:11;2.00;;;1.90;;
37451;SDS011;23314;51.114;6.900;2023-05-07T07:48:37;2.72;;;2.08;;
37451;SDS011;23314;51.114;6.900;2023-05-07T07:51:02;2.28;;;2.10;;
37451;SDS011;23314;51.114;6.900;2023-05-07T07:53:28;3.40;;;2.10;;
37451;SDS011;23314;51.114;6.900;2023-05-07T07:55:53;4.03;;;2.45;;
37451;SDS011;23314;51.114;6.900;2023-05-07T07:58:18;3.15;;;2.67;;
37451;SDS011;23314;51.114;6.900;2023-05-07T08:00:44;2.72;;;2.20;;
37451;SDS011;23314;51.114;6.900;2023-05-07T08:03:09;3.33;;;2.03;;
37451;SDS011;23314;51.114;6.900;2023-05-07T08:05:35;4.57;;;2.17;;
37451;SDS011;23314;51.114;6.900;2023-05-07T08:08:01;3.30;;;2.35;;
37451;SDS011;23314;51.114;6.900;2023-05-07T08:10:26;2.88;;;2.40;;
37451;SDS011;23314;51.114;6.900;2023-05-07T08:12:52;3.15;;;2.80;;
37451;SDS011;23314;51.114;6.900;2023-05-07T08:15:17;4.18;;;2.78;;
37451;SDS011;23314;51.114;6.900;2023-05-07T08:17:43;4.05;;;2.65;;
37451;SDS011;23314;51.114;6.900;2023-05-07T08:20:08;3.85;;;2.75;;
37451;SDS011;23314;51.114;6.900;2023-05-07T08:22:34;3.50;;;2.15;;
37451;SDS011;23314;51.114;6.900;2023-05-07T08:25:00;3.88;;;2.55;;
37451;SDS011;23314;51.114;6.900;2023-05-07T08:27:26;2.63;;;2.20;;
37451;SDS011;23314;51.114;6.900;2023-05-07T08:29:51;3.95;;;2.47;;
37451;SDS011;23314;51.114;6.900;2023-05-07T08:32:16;3.03;;;2.03;;
37451;SDS011;23314;51.114;6.900;2023-05-07T08:34:42;2.80;;;1.80;;
37451;SDS011;23314;51.114;6.900;2023-05-07T08:37:07;3.45;;;2.00;;
37451;SDS011;23314;51.114;6.900;2023-05-07T08:39:32;2.83;;;2.30;;
37451;SDS011;23314;51.114;6.900;2023-05-07T08:41:58;3.72;;;1.95;;
37451;SDS011;23314;51.114;6.900;2023-05-07T08:44:27;2.83;;;1.90;;
37451;SDS011;23314;51.114;6.900;2023-05-07T08:46:53;6.65;;;2.03;;
37451;SDS011;23314;51.114;6.900;2023-05-07T08:49:20;2.05;;;1.85;;
37451;SDS011;23314;51.114;6.900;2023-05-07T08:51:46;3.35;;;1.90;;
37451;SDS011;23314;51.114;6.900;2023-05-07T08:54:11;1.65;;;1.63;;
37451;SDS011;23314;51.114;6.900;2023-05-07T08:56:41;1.95;;;1.80;;
37451;SDS011;23314;51.114;6.900;2023-05-07T08:59:06;1.83;;;1.70;;
37451;SDS011;23314;51.114;6.900;2023-05-07T09:01:31;3.65;;;1.92;;
37451;SDS011;23314;51.114;6.900;2023-05-07T09:03:57;3.67;;;1.90;;
37451;SDS011;23314;51.114;6.900;2023-05-07T09:06:22;3.70;;;1.95;;
37451;SDS011;23314;51.114;6.900;2023-05-07T09:08:51;3.97;;;2.08;;
37451;SDS011;23314;51.114;6.900;2023-05-07T09:11:21;4.10;;;1.70;;
37451;SDS011;23314;51.114;6.900;2023-05-07T09:13:48;2.47;;;2.10;;
37451;SDS011;23314;51.114;6.900;2023-05-07T09:16:14;3.13;;;1.70;;
37451;SDS011;23314;51.114;6.900;2023-05-07T09:18:43;2.88;;;1.65;;
37451;SDS011;23314;51.114;6.900;2023-05-07T09:21:10;2.10;;;1.90;;
37451;SDS011;23314;51.114;6.900;2023-05-07T09:23:36;1.95;;;1.77;;
37451;SDS011;23314;51.114;6.900;2023-05-07T09:26:02;1.80;;;1.70;;
37451;SDS011;23314;51.114;6.900;2023-05-07T09:28:27;2.15;;;1.85;;
37451;SDS011;23314;51.114;6.900;2023-05-07T09:30:53;1.95;;;1.40;;
37451;SDS011;23314;51.114;6.900;2023-05-07T09:33:18;1.73;;;1.52;;
37451;SDS011;23314;51.114;6.900;2023-05-07T09:35:43;1.63;;;1.52;;
37451;SDS011;23314;51.114;6.900;2023-05-07T09:38:09;1.77;;;1.58;;
37451;SDS011;23314;51.114;6.900;2023-05-07T09:40:34;1.80;;;1.70;;
37451;SDS011;23314;51.114;6.900;2023-05-07T09:43:09;5.07;;;2.00;;
37451;SDS011;23314;51.114;6.900;2023-05-07T09:45:38;1.98;;;1.63;;
37451;SDS011;23314;51.114;6.900;2023-05-07T09:48:04;3.28;;;1.92;;
37451;SDS011;23314;51.114;6.900;2023-05-07T09:50:32;2.88;;;2.13;;
37451;SDS011;23314;51.114;6.900;2023-05-07T09:53:01;3.63;;;2.40;;
37451;SDS011;23314;51.114;6.900;2023-05-07T09:55:28;2.00;;;1.83;;
37451;SDS011;23314;51.114;6.900;2023-05-07T09:57:54;1.98;;;1.85;;
37451;SDS011;23314;51.114;6.900;2023-05-07T10:00:21;3.15;;;1.90;;
37451;SDS011;23314;51.114;6.900;2023-05-07T10:02:51;2.28;;;1.75;;
37451;SDS011;23314;51.114;6.900;2023-05-07T10:05:17;2.63;;;1.70;;
37451;SDS011;23314;51.114;6.900;2023-05-07T10:07:43;1.65;;;1.50;;
37451;SDS011;23314;51.114;6.900;2023-05-07T10:10:10;2.47;;;1.52;;
37451;SDS011;23314;51.114;6.900;2023-05-07T10:12:35;3.92;;;1.60;;
37451;SDS011;23314;51.114;6.900;2023-05-07T10:15:06;1.80;;;1.20;;
37451;SDS011;23314;51.114;6.900;2023-05-07T10:17:35;2.83;;;1.48;;
37451;SDS011;23314;51.114;6.900;2023-05-07T10:20:04;1.35;;;1.17;;
37451;SDS011;23314;51.114;6.900;2023-05-07T10:22:31;1.80;;;1.40;;
37451;SDS011;23314;51.114;6.900;2023-05-07T10:25:04;1.33;;;1.33;;
37451;SDS011;23314;51.114;6.900;2023-05-07T10:27:34;3.67;;;1.70;;
37451;SDS011;23314;51.114;6.900;2023-05-07T10:30:05;5.65;;;1.65;;
37451;SDS011;23314;51.114;6.900;2023-05-07T10:35:04;2.10;;;1.88;;
37451;SDS011;23314;51.114;6.900;2023-05-07T10:37:35;1.42;;;1.13;;
37451;SDS011;23314;51.114;6.900;2023-05-07T10:40:01;2.22;;;1.70;;
37451;SDS011;23314;51.114;6.900;2023-05-07T10:42:26;1.45;;;1.30;;
37451;SDS011;23314;51.114;6.900;2023-05-07T10:44:51;3.00;;;1.40;;
37451;SDS011;23314;51.114;6.900;2023-05-07T10:47:17;2.10;;;1.45;;
37451;SDS011;23314;51.114;6.900;2023-05-07T10:52:31;1.67;;;1.50;;
37451;SDS011;23314;51.114;6.900;2023-05-07T10:57:44;1.33;;;1.30;;
37451;SDS011;23314;51.114;6.900;2023-05-07T11:05:25;3.60;;;1.50;;
37451;SDS011;23314;51.114;6.900;2023-05-07T11:08:04;1.73;;;1.33;;
37451;SDS011;23314;51.114;6.900;2023-05-07T11:16:18;3.25;;;1.60;;
37451;SDS011;23314;51.114;6.900;2023-05-07T11:18:55;2.15;;;1.30;;
37451;SDS011;23314;51.114;6.900;2023-05-07T11:23:58;1.75;;;1.55;;
37451;SDS011;23314;51.114;6.900;2023-05-07T11:26:24;2.42;;;1.58;;
37451;SDS011;23314;51.114;6.900;2023-05-07T11:28:50;1.90;;;1.75;;
37451;SDS011;23314;51.114;6.900;2023-05-07T11:31:20;2.10;;;1.80;;
37451;SDS011;23314;51.114;6.900;2023-05-07T11:33:47;1.48;;;1.40;;
37451;SDS011;23314;51.114;6.900;2023-05-07T11:36:13;2.40;;;1.25;;
37451;SDS011;23314;51.114;6.900;2023-05-07T11:38:38;1.38;;;1.30;;
37451;SDS011;23314;51.114;6.900;2023-05-07T11:41:04;2.13;;;1.60;;
37451;SDS011;23314;51.114;6.900;2023-05-07T11:43:30;2.58;;;1.75;;
37451;SDS011;23314;51.114;6.900;2023-05-07T11:46:04;1.92;;;1.67;;
37451;SDS011;23314;51.114;6.900;2023-05-07T11:48:32;1.60;;;1.50;;
37451;SDS011;23314;51.114;6.900;2023-05-07T11:51:01;1.58;;;1.20;;
37451;SDS011;23314;51.114;6.900;2023-05-07T11:53:33;2.10;;;1.45;;
37451;SDS011;23314;51.114;6.900;2023-05-07T11:56:05;3.03;;;1.52;;
37451;SDS011;23314;51.114;6.900;2023-05-07T11:58:31;1.40;;;1.30;;
37451;SDS011;23314;51.114;6.900;2023-05-07T12:00:57;1.60;;;1.50;;
37451;SDS011;23314;51.114;6.900;2023-05-07T12:03:22;2.97;;;1.58;;
37451;SDS011;23314;51.114;6.900;2023-05-07T12:05:47;2.35;;;1.48;;
37451;SDS011;23314;51.114;6.900;2023-05-07T12:08:14;5.13;;;2.35;;
37451;SDS011;23314;51.114;6.900;2023-05-07T12:10:41;3.25;;;2.03;;
37451;SDS011;23314;51.114;6.900;2023-05-07T12:13:28;1.42;;;1.23;;
37451;SDS011;23314;51.114;6.900;2023-05-07T12:15:53;1.40;;;1.30;;
37451;SDS011;23314;51.114;6.900;2023-05-07T12:18:20;3.33;;;1.50;;
37451;SDS011;23314;51.114;6.900;2023-05-07T12:20:50;1.40;;;1.30;;
37451;SDS011;23314;51.114;6.900;2023-05-07T12:23:15;2.67;;;1.48;;
37451;SDS011;23314;51.114;6.900;2023-05-07T12:25:42;1.60;;;1.50;;
37451;SDS011;23314;51.114;6.900;2023-05-07T12:28:15;1.55;;;1.45;;
37451;SDS011;23314;51.114;6.900;2023-05-07T12:30:42;1.55;;;1.45;;
37451;SDS011;23314;51.114;6.900;2023-05-07T12:33:08;2.53;;;1.27;;
37451;SDS011;23314;51.114;6.900;2023-05-07T12:35:38;2.15;;;1.70;;
37451;SDS011;23314;51.114;6.900;2023-05-07T12:38:16;1.52;;;1.40;;
37451;SDS011;23314;51.114;6.900;2023-05-07T12:40:44;1.42;;;1.33;;
37451;SDS011;23314;51.114;6.900;2023-05-07T12:43:18;3.60;;;1.42;;
37451;SDS011;23314;51.114;6.900;2023-05-07T12:45:51;2.40;;;1.40;;
37451;SDS011;23314;51.114;6.900;2023-05-07T12:48:17;1.65;;;1.55;;
37451;SDS011;23314;51.114;6.900;2023-05-07T12:50:44;1.48;;;1.38;;
37451;SDS011;23314;51.114;6.900;2023-05-07T12:53:10;2.00;;;1.70;;
37451;SDS011;23314;51.114;6.900;2023-05-07T12:55:43;1.40;;;1.30;;
37451;SDS011;23314;51.114;6.900;2023-05-07T12:58:16;1.27;;;1.27;;
37451;SDS011;23314;51.114;6.900;2023-05-07T13:00:43;3.20;;;1.40;;
37451;SDS011;23314;51.114;6.900;2023-05-07T13:03:09;1.67;;;1.33;;
37451;SDS011;23314;51.114;6.900;2023-05-07T13:05:34;4.18;;;1.70;;
37451;SDS011;23314;51.114;6.900;2023-05-07T13:08:00;3.65;;;1.42;;
37451;SDS011;23314;51.114;6.900;2023-05-07T13:10:26;2.70;;;1.30;;
37451;SDS011;23314;51.114;6.900;2023-05-07T13:12:52;2.28;;;1.63;;
37451;SDS011;23314;51.114;6.900;2023-05-07T13:15:17;1.40;;;1.30;;
37451;SDS011;23314;51.114;6.900;2023-05-07T13:17:43;6.00;;;1.50;;
37451;SDS011;23314;51.114;6.900;2023-05-07T13:20:09;2.55;;;1.70;;
37451;SDS011;23314;51.114;6.900;2023-05-07T13:22:35;4.00;;;1.58;;
37451;SDS011;23314;51.114;6.900;2023-05-07T13:25:01;1.58;;;1.42;;
37451;SDS011;23314;51.114;6.900;2023-05-07T13:27:27;1.60;;;1.50;;
37451;SDS011;23314;51.114;6.900;2023-05-07T13:29:52;2.33;;;1.85;;
37451;SDS011;23314;51.114;6.900;2023-05-07T13:32:17;1.60;;;1.50;;
37451;SDS011;23314;51.114;6.900;2023-05-07T13:34:43;3.55;;;1.90;;
37451;SDS011;23314;51.114;6.900;2023-05-07T13:37:08;3.05;;;2.00;;
37451;SDS011;23314;51.114;6.900;2023-05-07T13:39:34;3.40;;;1.85;;
37451;SDS011;23314;51.114;6.900;2023-05-07T13:41:59;4.93;;;1.80;;
37451;SDS011;23314;51.114;6.900;2023-05-07T13:44:25;1.83;;;1.73;;
37451;SDS011;23314;51.114;6.900;2023-05-07T13:46:51;1.70;;;1.60;;
37451;SDS011;23314;51.114;6.900;2023-05-07T13:49:16;2.50;;;1.70;;
37451;SDS011;23314;51.114;6.900;2023-05-07T13:51:42;1.75;;;1.55;;
37451;SDS011;23314;51.114;6.900;2023-05-07T13:54:07;2.53;;;1.80;;
37451;SDS011;23314;51.114;6.900;2023-05-07T13:56:32;2.22;;;2.03;;
37451;SDS011;23314;51.114;6.900;2023-05-07T13:58:58;2.85;;;2.38;;
37451;SDS011;23314;51.114;6.900;2023-05-07T14:01:23;4.95;;;2.10;;
37451;SDS011;23314;51.114;6.900;2023-05-07T14:03:49;2.35;;;2.15;;
37451;SDS011;23314;51.114;6.900;2023-05-07T14:06:14;5.65;;;3.00;;
37451;SDS011;23314;51.114;6.900;2023-05-07T14:08:39;4.35;;;3.35;;
37451;SDS011;23314;51.114;6.900;2023-05-07T14:11:05;6.57;;;4.32;;
37451;SDS011;23314;51.114;6.900;2023-05-07T14:13:30;4.93;;;4.20;;
37451;SDS011;23314;51.114;6.900;2023-05-07T14:15:56;3.75;;;2.90;;
37451;SDS011;23314;51.114;6.900;2023-05-07T14:18:22;3.58;;;3.05;;
37451;SDS011;23314;51.114;6.900;2023-05-07T14:20:48;13.98;;;3.88;;
37451;SDS011;23314;51.114;6.900;2023-05-07T14:23:14;91.03;;;8.97;;
37451;SDS011;23314;51.114;6.900;2023-05-07T14:25:40;46.42;;;6.90;;
37451;SDS011;23314;51.114;6.900;2023-05-07T14:28:06;71.70;;;9.73;;
37451;SDS011;23314;51.114;6.900;2023-05-07T14:30:31;34.10;;;9.10;;
37451;SDS011;23314;51.114;6.900;2023-05-07T14:32:57;32.57;;;6.03;;
37451;SDS011;23314;51.114;6.900;2023-05-07T14:35:22;8.70;;;4.50;;
37451;SDS011;23314;51.114;6.900;2023-05-07T14:37:48;6.73;;;4.20;;
37451;SDS011;23314;51.114;6.900;2023-05-07T14:40:13;15.90;;;4.90;;
37451;SDS011;23314;51.114;6.900;2023-05-07T14:42:39;11.67;;;5.33;;
37451;SDS011;23314;51.114;6.900;2023-05-07T14:45:05;10.37;;;5.07;;
37451;SDS011;23314;51.114;6.900;2023-05-07T14:47:31;11.80;;;5.13;;
37451;SDS011;23314;51.114;6.900;2023-05-07T14:49:56;10.87;;;6.80;;
37451;SDS011;23314;51.114;6.900;2023-05-07T14:52:22;9.80;;;6.20;;
37451;SDS011;23314;51.114;6.900;2023-05-07T14:54:47;8.97;;;6.33;;
37451;SDS011;23314;51.114;6.900;2023-05-07T14:57:13;7.13;;;6.07;;
37451;SDS011;23314;51.114;6.900;2023-05-07T14:59:41;6.33;;;4.70;;
37451;SDS011;23314;51.114;6.900;2023-05-07T15:02:06;5.27;;;4.77;;
37451;SDS011;23314;51.114;6.900;2023-05-07T15:04:33;6.77;;;5.93;;
37451;SDS011;23314;51.114;6.900;2023-05-07T15:06:58;10.43;;;6.63;;
37451;SDS011;23314;51.114;6.900;2023-05-07T15:09:24;11.40;;;5.93;;
37451;SDS011;23314;51.114;6.900;2023-05-07T15:11:50;8.77;;;6.27;;
37451;SDS011;23314;51.114;6.900;2023-05-07T15:14:15;10.30;;;6.33;;
37451;SDS011;23314;51.114;6.900;2023-05-07T15:16:41;10.43;;;6.63;;
37451;SDS011;23314;51.114;6.900;2023-05-07T15:19:06;9.53;;;6.97;;
37451;SDS011;23314;51.114;6.900;2023-05-07T15:21:32;9.20;;;7.33;;
37451;SDS011;23314;51.114;6.900;2023-05-07T15:23:59;12.07;;;8.53;;
37451;SDS011;23314;51.114;6.900;2023-05-07T15:26:25;9.37;;;8.30;;
37451;SDS011;23314;51.114;6.900;2023-05-07T15:28:51;10.83;;;8.90;;
37451;SDS011;23314;51.114;6.900;2023-05-07T15:31:17;9.73;;;8.73;;
37451;SDS011;23314;51.114;6.900;2023-05-07T15:33:42;10.30;;;9.30;;
37451;SDS011;23314;51.114;6.900;2023-05-07T15:36:08;11.32;;;10.13;;
37451;SDS011;23314;51.114;6.900;2023-05-07T15:38:33;12.30;;;11.10;;
37451;SDS011;23314;51.114;6.900;2023-05-07T15:40:59;13.25;;;11.80;;
37451;SDS011;23314;51.114;6.900;2023-05-07T15:43:24;12.97;;;11.57;;
37451;SDS011;23314;51.114;6.900;2023-05-07T15:45:50;13.30;;;12.05;;
37451;SDS011;23314;51.114;6.900;2023-05-07T15:48:16;14.63;;;13.17;;
37451;SDS011;23314;51.114;6.900;2023-05-07T15:50:41;14.25;;;11.95;;
37451;SDS011;23314;51.114;6.900;2023-05-07T15:53:06;13.55;;;11.48;;
37451;SDS011;23314;51.114;6.900;2023-05-07T15:55:32;14.20;;;11.90;;
37451;SDS011;23314;51.114;6.900;2023-05-07T15:57:58;15.37;;;12.47;;
37451;SDS011;23314;51.114;6.900;2023-05-07T16:00:26;13.52;;;11.98;;
37451;SDS011;23314;51.114;6.900;2023-05-07T16:02:52;13.25;;;11.82;;
37451;SDS011;23314;51.114;6.900;2023-05-07T16:05:18;12.63;;;11.43;;
37451;SDS011;23314;51.114;6.900;2023-05-07T16:07:44;14.10;;;12.68;;
37451;SDS011;23314;51.114;6.900;2023-05-07T16:10:09;12.52;;;11.20;;
37451;SDS011;23314;51.114;6.900;2023-05-07T16:12:35;13.82;;;11.77;;
37451;SDS011;23314;51.114;6.900;2023-05-07T16:15:00;12.35;;;11.18;;
37451;SDS011;23314;51.114;6.900;2023-05-07T16:17:27;12.95;;;11.43;;
37451;SDS011;23314;51.114;6.900;2023-05-07T16:19:52;15.07;;;11.70;;
37451;SDS011;23314;51.114;6.900;2023-05-07T16:22:17;13.65;;;11.13;;
37451;SDS011;23314;51.114;6.900;2023-05-07T16:24:43;13.40;;;9.63;;
37451;SDS011;23314;51.114;6.900;2023-05-07T16:27:09;10.63;;;9.15;;
37451;SDS011;23314;51.114;6.900;2023-05-07T16:29:34;14.00;;;10.73;;
37451;SDS011;23314;51.114;6.900;2023-05-07T16:32:00;17.10;;;11.63;;
37451;SDS011;23314;51.114;6.900;2023-05-07T16:34:25;10.75;;;7.78;;
37451;SDS011;23314;51.114;6.900;2023-05-07T16:36:51;7.25;;;6.70;;
37451;SDS011;23314;51.114;6.900;2023-05-07T16:39:16;6.80;;;6.20;;
37451;SDS011;23314;51.114;6.900;2023-05-07T16:41:43;7.82;;;6.80;;
37451;SDS011;23314;51.114;6.900;2023-05-07T16:44:12;6.65;;;5.95;;
37451;SDS011;23314;51.114;6.900;2023-05-07T16:46:38;5.95;;;5.45;;
37451;SDS011;23314;51.114;6.900;2023-05-07T16:49:03;6.18;;;5.68;;
37451;SDS011;23314;51.114;6.900;2023-05-07T16:51:29;6.85;;;6.25;;
37451;SDS011;23314;51.114;6.900;2023-05-07T16:53:54;5.13;;;4.68;;
37451;SDS011;23314;51.114;6.900;2023-05-07T16:56:19;6.40;;;5.80;;
37451;SDS011;23314;51.114;6.900;2023-05-07T16:58:46;6.30;;;5.53;;
37451;SDS011;23314;51.114;6.900;2023-05-07T17:01:11;5.40;;;4.90;;
37451;SDS011;23314;51.114;6.900;2023-05-07T17:03:38;6.10;;;5.60;;
37451;SDS011;23314;51.114;6.900;2023-05-07T17:06:04;5.30;;;4.90;;
37451;SDS011;23314;51.114;6.900;2023-05-07T17:08:33;6.85;;;5.82;;
37451;SDS011;23314;51.114;6.900;2023-05-07T17:10:58;5.43;;;5.00;;
37451;SDS011;23314;51.114;6.900;2023-05-07T17:13:24;7.70;;;4.93;;
37451;SDS011;23314;51.114;6.900;2023-05-07T17:15:49;6.25;;;5.72;;
37451;SDS011;23314;51.114;6.900;2023-05-07T17:18:14;6.28;;;5.43;;
37451;SDS011;23314;51.114;6.900;2023-05-07T17:20:40;7.60;;;5.38;;
37451;SDS011;23314;51.114;6.900;2023-05-07T17:23:05;6.00;;;5.50;;
37451;SDS011;23314;51.114;6.900;2023-05-07T17:25:31;6.13;;;5.63;;
37451;SDS011;23314;51.114;6.900;2023-05-07T17:28:00;8.07;;;6.28;;
37451;SDS011;23314;51.114;6.900;2023-05-07T17:30:25;7.18;;;6.47;;
37451;SDS011;23314;51.114;6.900;2023-05-07T17:32:51;7.10;;;6.40;;
37451;SDS011;23314;51.114;6.900;2023-05-07T17:35:16;7.32;;;6.63;;
37451;SDS011;23314;51.114;6.900;2023-05-07T17:37:42;6.35;;;5.80;;
37451;SDS011;23314;51.114;6.900;2023-05-07T17:40:11;9.00;;;6.82;;
37451;SDS011;23314;51.114;6.900;2023-05-07T17:42:36;6.40;;;5.80;;
37451;SDS011;23314;51.114;6.900;2023-05-07T17:45:01;7.68;;;5.65;;
37451;SDS011;23314;51.114;6.900;2023-05-07T17:47:27;5.72;;;5.32;;
37451;SDS011;23314;51.114;6.900;2023-05-07T17:49:52;6.25;;;5.65;;
37451;SDS011;23314;51.114;6.900;2023-05-07T17:52:17;6.10;;;5.57;;
37451;SDS011;23314;51.114;6.900;2023-05-07T17:54:43;5.95;;;5.45;;
37451;SDS011;23314;51.114;6.900;2023-05-07T17:57:08;7.22;;;6.05;;
37451;SDS011;23314;51.114;6.900;2023-05-07T17:59:34;6.53;;;5.80;;
37451;SDS011;23314;51.114;6.900;2023-05-07T18:01:59;6.00;;;5.45;;
37451;SDS011;23314;51.114;6.900;2023-05-07T18:04:25;6.22;;;5.60;;
37451;SDS011;23314;51.114;6.900;2023-05-07T18:06:52;7.57;;;6.13;;
37451;SDS011;23314;51.114;6.900;2023-05-07T18:09:17;6.53;;;6.03;;
37451;SDS011;23314;51.114;6.900;2023-05-07T18:11:42;5.85;;;5.38;;
37451;SDS011;23314;51.114;6.900;2023-05-07T18:14:08;5.85;;;5.35;;
37451;SDS011;23314;51.114;6.900;2023-05-07T18:16:33;5.38;;;4.90;;
37451;SDS011;23314;51.114;6.900;2023-05-07T18:18:58;5.40;;;4.90;;
37451;SDS011;23314;51.114;6.900;2023-05-07T18:21:23;6.28;;;5.68;;
37451;SDS011;23314;51.114;6.900;2023-05-07T18:23:49;8.15;;;5.68;;
37451;SDS011;23314;51.114;6.900;2023-05-07T18:26:15;6.10;;;5.55;;
37451;SDS011;23314;51.114;6.900;2023-05-07T18:28:41;5.78;;;5.28;;
37451;SDS011;23314;51.114;6.900;2023-05-07T18:31:06;5.30;;;4.90;;
37451;SDS011;23314;51.114;6.900;2023-05-07T18:33:32;5.47;;;4.97;;
37451;SDS011;23314;51.114;6.900;2023-05-07T18:35:57;6.15;;;5.60;;
37451;SDS011;23314;51.114;6.900;2023-05-07T18:38:23;6.70;;;6.00;;
37451;SDS011;23314;51.114;6.900;2023-05-07T18:40:48;6.97;;;6.30;;
37451;SDS011;23314;51.114;6.900;2023-05-07T18:43:13;7.40;;;6.70;;
37451;SDS011;23314;51.114;6.900;2023-05-07T18:45:39;7.20;;;6.60;;
37451;SDS011;23314;51.114;6.900;2023-05-07T18:48:05;8.47;;;7.67;;
37451;SDS011;23314;51.114;6.900;2023-05-07T18:50:31;7.77;;;6.70;;
37451;SDS011;23314;51.114;6.900;2023-05-07T18:52:57;7.75;;;6.95;;
37451;SDS011;23314;51.114;6.900;2023-05-07T18:55:22;8.50;;;7.43;;
37451;SDS011;23314;51.114;6.900;2023-05-07T18:57:48;8.10;;;7.40;;
37451;SDS011;23314;51.114;6.900;2023-05-07T19:00:14;10.93;;;6.97;;
37451;SDS011;23314;51.114;6.900;2023-05-07T19:02:40;8.50;;;7.80;;
37451;SDS011;23314;51.114;6.900;2023-05-07T19:05:05;8.70;;;7.90;;
37451;SDS011;23314;51.114;6.900;2023-05-07T19:07:31;7.60;;;6.80;;
37451;SDS011;23314;51.114;6.900;2023-05-07T19:09:57;7.70;;;7.10;;
37451;SDS011;23314;51.114;6.900;2023-05-07T19:12:22;8.43;;;7.33;;
37451;SDS011;23314;51.114;6.900;2023-05-07T19:14:48;7.83;;;7.07;;
37451;SDS011;23314;51.114;6.900;2023-05-07T19:17:13;8.67;;;7.87;;
37451;SDS011;23314;51.114;6.900;2023-05-07T19:19:40;10.37;;;7.27;;
37451;SDS011;23314;51.114;6.900;2023-05-07T19:22:05;8.87;;;7.97;;
37451;SDS011;23314;51.114;6.900;2023-05-07T19:24:31;8.50;;;7.80;;
37451;SDS011;23314;51.114;6.900;2023-05-07T19:26:57;9.03;;;7.77;;
37451;SDS011;23314;51.114;6.900;2023-05-07T19:29:22;9.03;;;8.13;;
37451;SDS011;23314;51.114;6.900;2023-05-07T19:31:48;10.40;;;9.17;;
37451;SDS011;23314;51.114;6.900;2023-05-07T19:34:13;10.83;;;9.77;;
37451;SDS011;23314;51.114;6.900;2023-05-07T19:36:38;10.43;;;9.53;;
37451;SDS011;23314;51.114;6.900;2023-05-07T19:39:04;9.37;;;8.47;;
37451;SDS011;23314;51.114;6.900;2023-05-07T19:41:30;10.43;;;9.50;;
37451;SDS011;23314;51.114;6.900;2023-05-07T19:43:55;10.83;;;9.80;;
37451;SDS011;23314;51.114;6.900;2023-05-07T19:46:21;10.87;;;9.97;;
37451;SDS011;23314;51.114;6.900;2023-05-07T19:48:46;10.00;;;8.97;;
37451;SDS011;23314;51.114;6.900;2023-05-07T19:51:12;10.07;;;9.27;;
37451;SDS011;23314;51.114;6.900;2023-05-07T19:53:38;11.83;;;9.40;;
37451;SDS011;23314;51.114;6.900;2023-05-07T19:56:05;13.33;;;9.57;;
37451;SDS011;23314;51.114;6.900;2023-05-07T19:58:32;9.17;;;8.37;;
37451;SDS011;23314;51.114;6.900;2023-05-07T20:10:01;9.67;;;8.87;;
37451;SDS011;23314;51.114;6.900;2023-05-07T20:12:26;10.63;;;9.53;;
37451;SDS011;23314;51.114;6.900;2023-05-07T20:14:51;9.30;;;8.30;;
37451;SDS011;23314;51.114;6.900;2023-05-07T20:17:17;10.30;;;9.20;;
37451;SDS011;23314;51.114;6.900;2023-05-07T20:19:43;9.80;;;8.90;;
37451;SDS011;23314;51.114;6.900;2023-05-07T20:22:09;8.43;;;7.43;;
37451;SDS011;23314;51.114;6.900;2023-05-07T20:24:37;8.33;;;7.60;;
37451;SDS011;23314;51.114;6.900;2023-05-07T20:27:05;9.10;;;8.30;;
37451;SDS011;23314;51.114;6.900;2023-05-07T20:29:31;8.67;;;7.87;;
37451;SDS011;23314;51.114;6.900;2023-05-07T20:31:57;8.97;;;8.07;;
37451;SDS011;23314;51.114;6.900;2023-05-07T20:34:22;9.10;;;8.23;;
37451;SDS011;23314;51.114;6.900;2023-05-07T20:36:48;8.83;;;7.73;;
37451;SDS011;23314;51.114;6.900;2023-05-07T20:39:13;10.80;;;7.93;;
37451;SDS011;23314;51.114;6.900;2023-05-07T20:41:40;7.77;;;7.00;;
37451;SDS011;23314;51.114;6.900;2023-05-07T20:44:06;9.20;;;7.50;;
37451;SDS011;23314;51.114;6.900;2023-05-07T20:46:31;8.27;;;7.50;;
37451;SDS011;23314;51.114;6.900;2023-05-07T20:48:56;10.73;;;7.83;;
37451;SDS011;23314;51.114;6.900;2023-05-07T20:51:22;8.97;;;7.50;;
37451;SDS011;23314;51.114;6.900;2023-05-07T20:53:47;9.70;;;7.80;;
37451;SDS011;23314;51.114;6.900;2023-05-07T20:56:13;8.50;;;7.80;;
37451;SDS011;23314;51.114;6.900;2023-05-07T20:58:39;9.47;;;8.10;;
37451;SDS011;23314;51.114;6.900;2023-05-07T21:01:04;9.90;;;8.93;;
37451;SDS011;23314;51.114;6.900;2023-05-07T21:03:30;10.63;;;9.57;;
37451;SDS011;23314;51.114;6.900;2023-05-07T21:05:55;10.53;;;9.37;;
37451;SDS011;23314;51.114;6.900;2023-05-07T21:08:23;10.43;;;9.47;;
37451;SDS011;23314;51.114;6.900;2023-05-07T21:10:50;10.40;;;9.33;;
37451;SDS011;23314;51.114;6.900;2023-05-07T21:13:16;10.90;;;9.80;;
37451;SDS011;23314;51.114;6.900;2023-05-07T21:15:42;11.67;;;10.43;;
37451;SDS011;23314;51.114;6.900;2023-05-07T21:18:08;11.40;;;10.30;;
37451;SDS011;23314;51.114;6.900;2023-05-07T21:20:34;11.33;;;10.33;;
37451;SDS011;23314;51.114;6.900;2023-05-07T21:23:00;11.77;;;10.63;;
37451;SDS011;23314;51.114;6.900;2023-05-07T21:25:25;13.27;;;11.97;;
37451;SDS011;23314;51.114;6.900;2023-05-07T21:27:50;13.27;;;11.97;;
37451;SDS011;23314;51.114;6.900;2023-05-07T21:30:17;13.93;;;12.53;;
37451;SDS011;23314;51.114;6.900;2023-05-07T21:32:42;14.77;;;13.30;;
37451;SDS011;23314;51.114;6.900;2023-05-07T21:35:07;15.97;;;14.23;;
37451;SDS011;23314;51.114;6.900;2023-05-07T21:37:33;16.30;;;14.60;;
37451;SDS011;23314;51.114;6.900;2023-05-07T21:39:58;18.20;;;14.93;;
37451;SDS011;23314;51.114;6.900;2023-05-07T21:42:24;16.67;;;14.80;;
37451;SDS011;23314;51.114;6.900;2023-05-07T21:44:49;16.60;;;15.07;;
37451;SDS011;23314;51.114;6.900;2023-05-07T21:47:15;16.63;;;14.83;;
37451;SDS011;23314;51.114;6.900;2023-05-07T21:49:40;16.93;;;15.33;;
37451;SDS011;23314;51.114;6.900;2023-05-07T21:52:12;17.20;;;15.70;;
37451;SDS011;23314;51.114;6.900;2023-05-07T21:54:40;17.13;;;15.33;;
37451;SDS011;23314;51.114;6.900;2023-05-07T21:57:05;18.13;;;16.30;;
37451;SDS011;23314;51.114;6.900;2023-05-07T21:59:30;18.53;;;16.83;;
37451;SDS011;23314;51.114;6.900;2023-05-07T22:01:58;17.60;;;15.93;;
37451;SDS011;23314;51.114;6.900;2023-05-07T22:04:24;18.57;;;16.53;;
37451;SDS011;23314;51.114;6.900;2023-05-07T22:06:49;19.53;;;17.50;;
37451;SDS011;23314;51.114;6.900;2023-05-07T22:09:14;18.57;;;16.67;;